createdAt,value
2017-12-05T00:01:12.047Z,4.80
2017-12-05T00:03:40.450Z,5.00
2017-12-05T00:06:09.576Z,5.00
2017-12-05T00:08:38.140Z,5.00
2017-12-05T00:11:06.572Z,5.00
2017-12-05T00:13:34.836Z,5.00
2017-12-05T00:16:03.189Z,5.00
2017-12-05T00:18:31.353Z,5.00
2017-12-05T00:21:00.488Z,4.90
2017-12-05T00:23:28.836Z,4.90
2017-12-05T00:25:56.869Z,4.70
2017-12-05T00:28:24.880Z,4.60
2017-12-05T00:30:53.268Z,4.70
2017-12-05T00:33:21.629Z,4.80
2017-12-05T00:35:50.428Z,4.90
2017-12-05T00:38:18.797Z,4.80
2017-12-05T00:40:47.158Z,4.70
2017-12-05T00:43:15.964Z,4.60
2017-12-05T00:45:43.660Z,4.50
2017-12-05T00:48:11.369Z,4.60
2017-12-05T00:50:39.736Z,4.60
2017-12-05T00:53:08.096Z,4.60
2017-12-05T00:55:36.473Z,4.70
2017-12-05T00:58:04.826Z,4.60
2017-12-05T01:00:32.856Z,4.50
2017-12-05T01:03:01.969Z,4.40
2017-12-05T01:05:30.390Z,4.40
2017-12-05T01:07:58.960Z,4.50
2017-12-05T01:10:27.336Z,4.50
2017-12-05T01:12:55.685Z,4.50
2017-12-05T01:15:24.795Z,4.40
2017-12-05T01:17:53.151Z,4.40
2017-12-05T01:20:22.275Z,4.50
2017-12-05T01:22:50.637Z,4.50
2017-12-05T01:25:18.983Z,4.50
2017-12-05T01:27:47.349Z,4.50
2017-12-05T01:30:15.696Z,4.50
2017-12-05T01:32:44.834Z,4.40
2017-12-05T01:35:13.196Z,4.40
2017-12-05T01:37:41.548Z,4.30
2017-12-05T01:40:09.578Z,4.40
2017-12-05T01:42:38.691Z,4.40
2017-12-05T01:45:07.045Z,4.40
2017-12-05T01:47:36.156Z,4.50
2017-12-05T01:50:03.857Z,4.50
2017-12-05T01:52:32.209Z,4.40
2017-12-05T01:55:00.569Z,4.40
2017-12-05T01:57:29.682Z,4.40
2017-12-05T01:59:57.711Z,4.40
2017-12-05T02:02:25.413Z,4.40
2017-12-05T02:04:53.246Z,4.50
2017-12-05T02:07:21.704Z,4.40
2017-12-05T02:09:49.711Z,4.30
2017-12-05T02:12:17.559Z,4.40
2017-12-05T02:14:46.342Z,4.50
2017-12-05T02:17:14.403Z,4.50
2017-12-05T02:19:42.088Z,4.60
2017-12-05T02:22:10.376Z,4.50
2017-12-05T02:24:38.728Z,4.50
2017-12-05T02:27:07.091Z,4.50
2017-12-05T02:29:35.445Z,4.40
2017-12-05T02:32:03.794Z,4.60
2017-12-05T02:34:32.162Z,4.50
2017-12-05T02:37:01.284Z,4.50
2017-12-05T02:39:29.644Z,4.50
2017-12-05T02:41:58.022Z,4.30
2017-12-05T02:44:27.027Z,4.60
2017-12-05T02:46:55.400Z,4.50
2017-12-05T02:49:23.417Z,4.60
2017-12-05T02:51:51.441Z,4.60
2017-12-05T02:54:19.459Z,4.70
2017-12-05T02:56:47.152Z,4.50
2017-12-05T02:59:15.602Z,4.50
2017-12-05T03:01:43.960Z,4.50
2017-12-05T03:04:11.984Z,4.50
2017-12-05T03:06:40.045Z,4.50
2017-12-05T03:09:09.156Z,4.50
2017-12-05T03:11:37.173Z,4.50
2017-12-05T03:14:05.536Z,4.50
2017-12-05T03:16:33.552Z,4.50
2017-12-05T03:19:02.881Z,4.40
2017-12-05T03:21:30.897Z,4.40
2017-12-05T03:23:59.257Z,4.30
2017-12-05T03:26:28.368Z,4.20
2017-12-05T03:28:56.813Z,4.20
2017-12-05T03:31:24.969Z,4.20
2017-12-05T03:33:53.124Z,4.20
2017-12-05T03:36:22.265Z,4.20
2017-12-05T03:38:50.611Z,4.10
2017-12-05T03:41:18.960Z,4.20
2017-12-05T03:43:47.300Z,4.20
2017-12-05T03:46:15.476Z,4.20
2017-12-05T03:48:43.831Z,4.30
2017-12-05T03:51:12.017Z,4.30
2017-12-05T03:53:40.368Z,4.30
2017-12-05T03:56:08.715Z,4.30
2017-12-05T03:58:37.074Z,4.30
2017-12-05T04:01:05.428Z,4.30
2017-12-05T04:03:33.781Z,4.40
2017-12-05T04:06:02.136Z,4.40
2017-12-05T04:08:31.257Z,4.40
2017-12-05T04:10:59.820Z,4.40
2017-12-05T04:13:29.750Z,4.40
2017-12-05T04:15:59.038Z,4.40
2017-12-05T04:18:27.383Z,4.40
2017-12-05T04:20:55.740Z,4.40
2017-12-05T04:23:24.081Z,4.40
2017-12-05T04:25:52.444Z,4.40
2017-12-05T04:28:21.556Z,4.40
2017-12-05T04:30:49.916Z,4.30
2017-12-05T04:33:19.030Z,4.40
2017-12-05T04:35:47.048Z,4.30
2017-12-05T04:38:15.402Z,4.40
2017-12-05T04:40:43.756Z,4.40
2017-12-05T04:43:12.120Z,4.50
2017-12-05T04:45:41.224Z,4.50
2017-12-05T04:48:09.584Z,4.40
2017-12-05T04:50:38.701Z,4.50
2017-12-05T04:53:07.054Z,4.50
2017-12-05T04:55:35.991Z,4.50
2017-12-05T04:58:04.359Z,4.40
2017-12-05T05:00:32.242Z,4.50
2017-12-05T05:03:00.584Z,4.50
2017-12-05T05:05:28.960Z,4.50
2017-12-05T05:07:57.304Z,4.50
2017-12-05T05:10:25.664Z,4.50
2017-12-05T05:12:54.020Z,4.50
2017-12-05T05:15:22.372Z,4.50
2017-12-05T05:17:50.746Z,4.50
2017-12-05T05:20:19.864Z,4.50
2017-12-05T05:22:48.226Z,4.50
2017-12-05T05:25:16.572Z,4.50
2017-12-05T05:27:44.741Z,4.50
2017-12-05T05:30:12.907Z,4.50
2017-12-05T05:32:41.068Z,4.50
2017-12-05T05:35:09.352Z,4.50
2017-12-05T05:37:37.876Z,4.50
2017-12-05T05:40:06.222Z,4.50
2017-12-05T05:42:34.584Z,4.50
2017-12-05T05:45:02.951Z,4.40
2017-12-05T05:47:31.953Z,4.50
2017-12-05T05:50:00.320Z,4.40
2017-12-05T05:52:28.712Z,4.40
2017-12-05T05:54:57.074Z,4.40
2017-12-05T05:57:26.692Z,4.40
2017-12-05T05:59:56.305Z,4.50
2017-12-05T06:02:26.072Z,4.40
2017-12-05T06:04:55.834Z,4.40
2017-12-05T06:07:25.302Z,4.40
2017-12-05T06:09:53.882Z,4.40
2017-12-05T06:12:22.240Z,4.40
2017-12-05T06:14:50.584Z,4.30
2017-12-05T06:17:18.977Z,4.30
2017-12-05T06:19:48.096Z,4.40
2017-12-05T06:22:16.488Z,4.30
2017-12-05T06:24:44.840Z,4.40
2017-12-05T06:27:13.212Z,4.30
2017-12-05T06:29:42.324Z,4.10
2017-12-05T06:32:10.824Z,4.10
2017-12-05T06:34:39.172Z,4.00
2017-12-05T06:37:07.523Z,4.10
2017-12-05T06:39:35.881Z,4.10
2017-12-05T06:42:03.704Z,4.10
2017-12-05T06:44:32.068Z,4.20
2017-12-05T06:47:01.182Z,4.10
2017-12-05T06:49:29.545Z,4.10
2017-12-05T06:51:57.993Z,4.10
2017-12-05T06:54:25.698Z,4.00
2017-12-05T06:56:53.452Z,4.10
2017-12-05T06:59:22.472Z,4.00
2017-12-05T07:01:50.175Z,4.00
2017-12-05T07:04:18.204Z,4.00
2017-12-05T07:06:46.229Z,3.90
2017-12-05T07:09:14.734Z,3.90
2017-12-05T07:11:42.757Z,3.90
2017-12-05T07:14:11.267Z,4.00
2017-12-05T07:16:40.040Z,4.00
2017-12-05T07:19:08.088Z,3.90
2017-12-05T07:21:36.472Z,3.90
2017-12-05T07:24:04.538Z,3.90
2017-12-05T07:26:32.549Z,4.00
2017-12-05T07:29:00.234Z,4.00
2017-12-05T07:31:28.582Z,4.00
2017-12-05T07:33:57.372Z,4.00
2017-12-05T07:36:26.164Z,4.00
2017-12-05T07:38:53.845Z,4.00
2017-12-05T07:41:21.874Z,4.00
2017-12-05T07:43:49.636Z,4.00
2017-12-05T07:46:17.320Z,4.00
2017-12-05T07:48:45.781Z,4.00
2017-12-05T07:51:14.229Z,4.10
2017-12-05T07:53:42.276Z,4.10
2017-12-05T07:56:10.276Z,4.10
2017-12-05T07:58:38.640Z,4.10
2017-12-05T08:01:06.662Z,4.10
2017-12-05T08:03:35.798Z,4.20
2017-12-05T08:06:03.476Z,4.20
2017-12-05T08:08:31.498Z,4.20
2017-12-05T08:10:59.194Z,4.30
2017-12-05T08:13:26.876Z,4.30
2017-12-05T08:15:54.580Z,4.20
2017-12-05T08:18:23.024Z,4.20
2017-12-05T08:20:50.721Z,4.20
2017-12-05T08:23:19.168Z,4.30
2017-12-05T08:25:46.659Z,4.20
2017-12-05T08:28:14.939Z,4.20
2017-12-05T08:30:42.728Z,4.20
2017-12-05T08:33:10.890Z,4.20
2017-12-05T08:35:39.270Z,4.20
2017-12-05T08:38:06.956Z,4.30
2017-12-05T08:40:34.488Z,4.30
2017-12-05T08:43:02.045Z,4.30
2017-12-05T08:45:29.721Z,4.30
2017-12-05T08:47:57.812Z,4.40
2017-12-05T08:50:25.589Z,4.40
2017-12-05T08:52:53.277Z,4.40
2017-12-05T08:55:21.729Z,4.50
2017-12-05T08:57:49.777Z,4.40
2017-12-05T09:00:17.459Z,4.50
2017-12-05T09:02:45.180Z,4.40
2017-12-05T09:05:12.892Z,4.50
2017-12-05T09:07:40.573Z,4.50
2017-12-05T09:10:09.348Z,4.50
2017-12-05T09:12:37.272Z,4.50
2017-12-05T09:15:05.290Z,4.50
2017-12-05T09:17:32.970Z,4.60
2017-12-05T09:20:01.786Z,4.60
2017-12-05T09:22:29.469Z,4.60
2017-12-05T09:24:57.154Z,4.60
2017-12-05T09:27:25.195Z,4.60
2017-12-05T09:29:53.023Z,4.60
2017-12-05T09:32:20.712Z,4.60
2017-12-05T09:34:48.428Z,4.70
2017-12-05T09:37:16.456Z,4.70
2017-12-05T09:39:44.137Z,4.70
2017-12-05T09:42:11.844Z,4.70
2017-12-05T09:44:39.552Z,4.70
2017-12-05T09:47:07.238Z,4.70
2017-12-05T09:49:34.953Z,4.80
2017-12-05T09:52:03.329Z,4.80
2017-12-05T09:54:31.412Z,4.80
2017-12-05T09:56:59.593Z,4.80
2017-12-05T09:59:27.293Z,4.90
2017-12-05T10:01:55.777Z,4.90
2017-12-05T10:04:24.243Z,4.90
2017-12-05T10:06:51.987Z,4.90
2017-12-05T10:09:20.585Z,5.00
2017-12-05T10:11:48.284Z,5.00
2017-12-05T10:14:15.969Z,5.00
2017-12-05T10:16:43.659Z,5.00
2017-12-05T10:19:11.718Z,5.00
2017-12-05T10:21:39.400Z,5.00
2017-12-05T10:24:07.282Z,5.00
2017-12-05T10:26:35.770Z,5.10
2017-12-05T10:29:04.549Z,5.10
2017-12-05T10:31:32.229Z,5.10
2017-12-05T10:34:00.721Z,5.00
2017-12-05T10:36:28.420Z,5.00
2017-12-05T10:38:56.101Z,5.10
2017-12-05T10:41:23.812Z,5.10
2017-12-05T10:43:51.527Z,5.20
2017-12-05T10:46:19.238Z,5.10
2017-12-05T10:48:46.976Z,5.20
2017-12-05T10:51:15.452Z,5.20
2017-12-05T10:53:43.929Z,5.20
2017-12-05T10:56:11.667Z,5.20
2017-12-05T10:58:40.035Z,5.20
2017-12-05T11:01:08.404Z,5.30
2017-12-05T11:03:36.785Z,5.30
2017-12-05T11:06:05.189Z,5.30
2017-12-05T11:08:33.564Z,5.30
2017-12-05T11:11:01.774Z,5.30
2017-12-05T11:13:30.912Z,5.30
2017-12-05T11:15:59.290Z,5.30
2017-12-05T11:18:27.696Z,5.40
2017-12-05T11:20:55.577Z,5.40
2017-12-05T11:23:23.949Z,5.40
2017-12-05T11:25:52.176Z,5.40
2017-12-05T11:28:20.364Z,5.50
2017-12-05T11:30:48.452Z,5.40
2017-12-05T11:33:17.764Z,5.40
2017-12-05T11:35:45.812Z,5.40
2017-12-05T11:38:14.215Z,5.30
2017-12-05T11:40:42.603Z,5.30
2017-12-05T11:43:10.791Z,5.40
2017-12-05T11:45:40.126Z,5.40
2017-12-05T11:48:08.868Z,5.40
2017-12-05T11:50:36.983Z,5.40
2017-12-05T11:53:05.362Z,5.40
2017-12-05T11:55:33.425Z,5.40
2017-12-05T11:58:01.796Z,5.40
2017-12-05T12:00:29.836Z,5.40
2017-12-05T12:02:58.986Z,5.40
2017-12-05T12:05:26.684Z,5.30
2017-12-05T12:07:55.988Z,5.40
2017-12-05T12:10:25.177Z,5.50
2017-12-05T12:12:53.544Z,5.40
2017-12-05T12:15:21.921Z,5.50
2017-12-05T12:17:50.316Z,5.50
2017-12-05T12:20:18.688Z,5.50
2017-12-05T12:22:47.088Z,5.50
2017-12-05T12:25:15.946Z,5.50
2017-12-05T12:27:44.320Z,5.50
2017-12-05T12:30:12.709Z,5.60
2017-12-05T12:32:40.766Z,5.50
2017-12-05T12:35:09.164Z,5.50
2017-12-05T12:37:37.560Z,5.60
2017-12-05T12:40:06.716Z,5.50
2017-12-05T12:42:35.100Z,5.50
2017-12-05T12:45:05.726Z,5.50
2017-12-05T12:47:34.111Z,5.50
2017-12-05T12:50:02.488Z,5.40
2017-12-05T12:52:30.672Z,5.40
2017-12-05T12:54:59.092Z,5.50
2017-12-05T12:57:27.466Z,5.50
2017-12-05T12:59:55.851Z,5.50
2017-12-05T13:02:24.247Z,5.50
2017-12-05T13:04:52.626Z,5.50
2017-12-05T13:07:21.000Z,5.50
2017-12-05T13:09:49.394Z,5.50
2017-12-05T13:12:17.576Z,5.50
2017-12-05T13:14:46.546Z,5.50
2017-12-05T13:17:15.027Z,5.40
2017-12-05T13:19:43.400Z,5.40
2017-12-05T13:22:11.782Z,5.50
2017-12-05T13:24:40.204Z,5.40
2017-12-05T13:27:08.586Z,5.40
2017-12-05T13:29:36.632Z,5.40
2017-12-05T13:32:05.034Z,5.40
2017-12-05T13:34:33.481Z,5.40
2017-12-05T13:37:01.854Z,5.40
2017-12-05T13:39:30.261Z,5.40
2017-12-05T13:41:58.648Z,5.40
2017-12-05T13:44:27.012Z,5.50
2017-12-05T13:46:55.392Z,5.50
2017-12-05T13:49:23.770Z,5.50
2017-12-05T13:51:52.153Z,5.40
2017-12-05T13:54:20.557Z,5.40
2017-12-05T13:56:49.552Z,5.40
2017-12-05T13:59:18.982Z,5.40
2017-12-05T14:01:48.344Z,5.40
2017-12-05T14:04:16.721Z,5.40
